Terminal Aerodrome Forecast
Issued by NWS

Home | Current Version | Previous Version | Text Only | Print | Product List | Glossary On
Versions: 1 2 3 4 5 6 7 8 9 10 11 12 13
000
FTUS46 KSEW 282300
TAFBFI
TAF
KBFI 282320Z 2900/2924 01005KT P6SM BKN020 OVC040
     FM290800 02006KT P6SM SCT040 BKN080
     FM291500 03008KT P6SM SCT080 BKN250
     FM292200 02012KT P6SM SCT100 SCT250=

USA.gov is the U.S. government's official web portal to all federal, state and local government web resources and services.